SHT3A EGCC-EGLL
Flight info
| Callsign | SHT3A |
|---|---|
| Flight time | 0h 34m |
| Altitude | 19000 |
| Route | SANBA1Y SANBA N859 HON HON2H |
| Aircraft | A320/M-SDE3FGIJ1KRWXY/SB1 |
Departure
| Time | 2026-05-01 14:52 |
|---|---|
| Airport | Manchester Airport (EGCC) |
Arrival
| Time | 2026-05-01 15:26 |
|---|---|
| Airport | London Heathrow Airport (EGLL) |
| Time | Latitude | Longitude | Altitude | Speed | Heading |
|---|---|---|---|---|---|
| 2026-05-01 13:47 | 53.36831 | -2.28880 | 255 ft | 0 kts | 134° |
| 2026-05-01 14:33 | 53.36833 | -2.28884 | 255 ft | 3 kts | 134° |
| 2026-05-01 14:33 | 53.36853 | -2.28912 | 255 ft | 4 kts | 155° |
| 2026-05-01 14:34 | 53.36876 | -2.28920 | 255 ft | 4 kts | 207° |
| 2026-05-01 14:34 | 53.36883 | -2.28912 | 255 ft | 0 kts | 225° |
| 2026-05-01 14:41 | 53.36883 | -2.28913 | 255 ft | 1 kts | 225° |
| 2026-05-01 14:42 | 53.36873 | -2.28930 | 255 ft | 3 kts | 225° |
| 2026-05-01 14:42 | 53.36849 | -2.28969 | 255 ft | 6 kts | 225° |
| 2026-05-01 14:42 | 53.36807 | -2.29021 | 255 ft | 9 kts | 206° |
| 2026-05-01 14:42 | 53.36738 | -2.29027 | 255 ft | 11 kts | 150° |
| 2026-05-01 14:43 | 53.36672 | -2.28930 | 255 ft | 14 kts | 142° |
| 2026-05-01 14:43 | 53.36595 | -2.28817 | 255 ft | 16 kts | 119° |
| 2026-05-01 14:43 | 53.36540 | -2.28647 | 255 ft | 18 kts | 133° |
| 2026-05-01 14:43 | 53.36445 | -2.28489 | 255 ft | 20 kts | 135° |
| 2026-05-01 14:44 | 53.36349 | -2.28330 | 255 ft | 19 kts | 134° |
| 2026-05-01 14:44 | 53.36160 | -2.28007 | 255 ft | 19 kts | 135° |
| 2026-05-01 14:44 | 53.36080 | -2.27874 | 255 ft | 16 kts | 141° |
| 2026-05-01 14:45 | 53.35968 | -2.27840 | 255 ft | 18 kts | 185° |
| 2026-05-01 14:45 | 53.35791 | -2.27696 | 255 ft | 15 kts | 140° |
| 2026-05-01 14:45 | 53.35694 | -2.27616 | 256 ft | 16 kts | 152° |
| 2026-05-01 14:46 | 53.35609 | -2.27509 | 256 ft | 12 kts | 141° |
| 2026-05-01 14:46 | 53.35576 | -2.27465 | 256 ft | 0 kts | 141° |
| 2026-05-01 14:46 | 53.35575 | -2.27464 | 256 ft | 1 kts | 141° |
| 2026-05-01 14:47 | 53.35558 | -2.27442 | 256 ft | 9 kts | 141° |
| 2026-05-01 14:47 | 53.35443 | -2.27288 | 255 ft | 25 kts | 141° |
| 2026-05-01 14:47 | 53.35294 | -2.27201 | 247 ft | 24 kts | 191° |
| 2026-05-01 14:48 | 53.35158 | -2.27247 | 244 ft | 0 kts | 191° |
| 2026-05-01 14:48 | 53.35136 | -2.27254 | 244 ft | 5 kts | 191° |
| 2026-05-01 14:49 | 53.35014 | -2.27316 | 240 ft | 14 kts | 215° |
| 2026-05-01 14:49 | 53.34980 | -2.27379 | 239 ft | 0 kts | 232° |
| 2026-05-01 14:51 | 53.34848 | -2.27656 | 232 ft | 67 kts | 231° |
| 2026-05-01 14:51 | 53.33787 | -2.29859 | 428 ft | 152 kts | 234° |
| 2026-05-01 14:52 | 53.32510 | -2.32641 | 1566 ft | 155 kts | 232° |
| 2026-05-01 14:52 | 53.31945 | -2.34291 | 1802 ft | 177 kts | 261° |
| 2026-05-01 14:52 | 53.33068 | -2.38351 | 2110 ft | 219 kts | 292° |
| 2026-05-01 14:53 | 53.33369 | -2.40927 | 2249 ft | 237 kts | 264° |
| 2026-05-01 14:53 | 53.32849 | -2.43598 | 2595 ft | 248 kts | 236° |
| 2026-05-01 14:53 | 53.31579 | -2.45536 | 3145 ft | 250 kts | 204° |
| 2026-05-01 14:53 | 53.29901 | -2.46121 | 3826 ft | 249 kts | 176° |
| 2026-05-01 14:54 | 53.28218 | -2.45373 | 4457 ft | 253 kts | 163° |
| 2026-05-01 14:54 | 53.26574 | -2.44315 | 5089 ft | 255 kts | 156° |
| 2026-05-01 14:54 | 53.24987 | -2.42994 | 5720 ft | 255 kts | 155° |
| 2026-05-01 14:54 | 53.23398 | -2.41647 | 6380 ft | 256 kts | 155° |
| 2026-05-01 14:55 | 53.21817 | -2.40288 | 6969 ft | 256 kts | 155° |
| 2026-05-01 14:55 | 53.20227 | -2.38912 | 7496 ft | 257 kts | 155° |
| 2026-05-01 14:55 | 53.18636 | -2.37525 | 8018 ft | 259 kts | 155° |
| 2026-05-01 14:55 | 53.17029 | -2.36123 | 8527 ft | 261 kts | 155° |
| 2026-05-01 14:56 | 53.15419 | -2.34719 | 9021 ft | 262 kts | 155° |
| 2026-05-01 14:56 | 53.13796 | -2.33303 | 9502 ft | 264 kts | 155° |
| 2026-05-01 14:56 | 53.12169 | -2.31879 | 9979 ft | 265 kts | 154° |
| 2026-05-01 14:56 | 53.10514 | -2.30429 | 10240 ft | 275 kts | 155° |
| 2026-05-01 14:57 | 53.08764 | -2.28903 | 10403 ft | 296 kts | 154° |
| 2026-05-01 14:57 | 53.04938 | -2.25583 | 11475 ft | 318 kts | 154° |
| 2026-05-01 14:57 | 53.02958 | -2.23864 | 12209 ft | 323 kts | 154° |
| 2026-05-01 14:58 | 53.00960 | -2.22125 | 12905 ft | 327 kts | 154° |
| 2026-05-01 14:58 | 52.98933 | -2.20360 | 13623 ft | 331 kts | 154° |
| 2026-05-01 14:58 | 52.96898 | -2.18595 | 14302 ft | 335 kts | 155° |
| 2026-05-01 14:58 | 52.94818 | -2.16796 | 14955 ft | 338 kts | 155° |
| 2026-05-01 14:59 | 52.92721 | -2.14985 | 15574 ft | 342 kts | 155° |
| 2026-05-01 14:59 | 52.90604 | -2.13157 | 16199 ft | 345 kts | 155° |
| 2026-05-01 14:59 | 52.88470 | -2.11314 | 16810 ft | 349 kts | 155° |
| 2026-05-01 14:59 | 52.86306 | -2.09446 | 17424 ft | 352 kts | 155° |
| 2026-05-01 15:00 | 52.81906 | -2.05660 | 18636 ft | 360 kts | 155° |
| 2026-05-01 15:00 | 52.79679 | -2.03744 | 19018 ft | 362 kts | 155° |
| 2026-05-01 15:00 | 52.77435 | -2.01813 | 19116 ft | 366 kts | 155° |
| 2026-05-01 15:01 | 52.75145 | -1.99848 | 19138 ft | 375 kts | 155° |
| 2026-05-01 15:01 | 52.72827 | -1.97862 | 19137 ft | 376 kts | 155° |
| 2026-05-01 15:01 | 52.70497 | -1.95870 | 19138 ft | 377 kts | 155° |
| 2026-05-01 15:01 | 52.68173 | -1.93881 | 19139 ft | 377 kts | 155° |
| 2026-05-01 15:02 | 52.65837 | -1.91887 | 19139 ft | 377 kts | 155° |
| 2026-05-01 15:02 | 52.65081 | -1.91244 | 19139 ft | 377 kts | 155° |
| 2026-05-01 15:02 | 52.61174 | -1.87922 | 19138 ft | 377 kts | 155° |
| 2026-05-01 15:02 | 52.58876 | -1.85970 | 19139 ft | 377 kts | 155° |
| 2026-05-01 15:03 | 52.56513 | -1.83963 | 19139 ft | 377 kts | 155° |
| 2026-05-01 15:03 | 52.54217 | -1.82016 | 19139 ft | 377 kts | 155° |
| 2026-05-01 15:03 | 52.51885 | -1.80041 | 19141 ft | 377 kts | 155° |
| 2026-05-01 15:03 | 52.49556 | -1.78070 | 19140 ft | 377 kts | 155° |
| 2026-05-01 15:04 | 52.47228 | -1.76098 | 19144 ft | 376 kts | 155° |
| 2026-05-01 15:04 | 52.44902 | -1.74131 | 19146 ft | 376 kts | 155° |
| 2026-05-01 15:04 | 52.42577 | -1.72167 | 19148 ft | 376 kts | 155° |
| 2026-05-01 15:04 | 52.40258 | -1.70214 | 19148 ft | 376 kts | 155° |
| 2026-05-01 15:05 | 52.37928 | -1.68257 | 19149 ft | 376 kts | 155° |
| 2026-05-01 15:05 | 52.35650 | -1.66149 | 19146 ft | 378 kts | 148° |
| 2026-05-01 15:05 | 52.33589 | -1.63455 | 19146 ft | 380 kts | 142° |
| 2026-05-01 15:05 | 52.31589 | -1.60629 | 19145 ft | 380 kts | 142° |
| 2026-05-01 15:06 | 52.29588 | -1.57795 | 19144 ft | 380 kts | 142° |
| 2026-05-01 15:06 | 52.27593 | -1.54971 | 19145 ft | 380 kts | 142° |
| 2026-05-01 15:06 | 52.25588 | -1.52144 | 19148 ft | 380 kts | 142° |
| 2026-05-01 15:06 | 52.23589 | -1.49332 | 19152 ft | 379 kts | 142° |
| 2026-05-01 15:07 | 52.21589 | -1.46524 | 19139 ft | 379 kts | 142° |
| 2026-05-01 15:07 | 52.19584 | -1.43717 | 19140 ft | 380 kts | 142° |
| 2026-05-01 15:07 | 52.17574 | -1.40910 | 19141 ft | 380 kts | 142° |
| 2026-05-01 15:07 | 52.15567 | -1.38114 | 19143 ft | 380 kts | 142° |
| 2026-05-01 15:08 | 52.14237 | -1.36259 | 19142 ft | 380 kts | 142° |
| 2026-05-01 15:08 | 52.12232 | -1.33462 | 19145 ft | 380 kts | 142° |
| 2026-05-01 15:08 | 52.10227 | -1.30673 | 19143 ft | 376 kts | 142° |
| 2026-05-01 15:08 | 52.08281 | -1.27965 | 19072 ft | 360 kts | 142° |
| 2026-05-01 15:09 | 52.06415 | -1.25366 | 18803 ft | 350 kts | 142° |
| 2026-05-01 15:09 | 52.04576 | -1.22810 | 18353 ft | 346 kts | 143° |
| 2026-05-01 15:09 | 52.02757 | -1.20286 | 17820 ft | 343 kts | 142° |
| 2026-05-01 15:09 | 52.00947 | -1.17779 | 17307 ft | 340 kts | 143° |
| 2026-05-01 15:10 | 51.99155 | -1.15306 | 16805 ft | 338 kts | 143° |
| 2026-05-01 15:10 | 51.95596 | -1.10415 | 15817 ft | 333 kts | 143° |
| 2026-05-01 15:10 | 51.93835 | -1.07991 | 15318 ft | 330 kts | 143° |
| 2026-05-01 15:11 | 51.92087 | -1.05581 | 14833 ft | 328 kts | 142° |
| 2026-05-01 15:11 | 51.88627 | -1.00822 | 13922 ft | 324 kts | 143° |
| 2026-05-01 15:11 | 51.86913 | -0.98472 | 13422 ft | 322 kts | 143° |
| 2026-05-01 15:12 | 51.85315 | -0.95947 | 12929 ft | 323 kts | 129° |
| 2026-05-01 15:12 | 51.83219 | -0.89490 | 11965 ft | 323 kts | 120° |
| 2026-05-01 15:12 | 51.82234 | -0.86241 | 11511 ft | 321 kts | 120° |
| 2026-05-01 15:13 | 51.79311 | -0.76652 | 10229 ft | 316 kts | 120° |
| 2026-05-01 15:14 | 51.77363 | -0.70318 | 9318 ft | 313 kts | 120° |
| 2026-05-01 15:14 | 51.76413 | -0.67236 | 9125 ft | 298 kts | 120° |
| 2026-05-01 15:14 | 51.74709 | -0.61694 | 8864 ft | 257 kts | 121° |
| 2026-05-01 15:15 | 51.73172 | -0.56739 | 8206 ft | 241 kts | 121° |
| 2026-05-01 15:15 | 51.71654 | -0.51887 | 8142 ft | 244 kts | 121° |
| 2026-05-01 15:16 | 51.70048 | -0.47089 | 8137 ft | 242 kts | 126° |
| 2026-05-01 15:16 | 51.68270 | -0.42497 | 8138 ft | 242 kts | 126° |
| 2026-05-01 15:17 | 51.66478 | -0.37902 | 8138 ft | 242 kts | 126° |
| 2026-05-01 15:18 | 51.63797 | -0.31028 | 8136 ft | 241 kts | 126° |
| 2026-05-01 15:18 | 51.62909 | -0.28743 | 8136 ft | 241 kts | 126° |
| 2026-05-01 15:19 | 51.60248 | -0.21923 | 7319 ft | 239 kts | 126° |
| 2026-05-01 15:19 | 51.58490 | -0.17431 | 6793 ft | 238 kts | 126° |
| 2026-05-01 15:19 | 51.57617 | -0.15183 | 6523 ft | 236 kts | 126° |
| 2026-05-01 15:20 | 51.55854 | -0.10726 | 5911 ft | 234 kts | 128° |
| 2026-05-01 15:20 | 51.54661 | -0.09056 | 5614 ft | 227 kts | 159° |
| 2026-05-01 15:20 | 51.53159 | -0.08584 | 5298 ft | 223 kts | 178° |
| 2026-05-01 15:21 | 51.51598 | -0.08524 | 4973 ft | 224 kts | 181° |
| 2026-05-01 15:21 | 51.50072 | -0.08722 | 4768 ft | 218 kts | 199° |
| 2026-05-01 15:21 | 51.48809 | -0.10042 | 4456 ft | 219 kts | 226° |
| 2026-05-01 15:21 | 51.48032 | -0.12067 | 4322 ft | 210 kts | 248° |
| 2026-05-01 15:22 | 51.47806 | -0.16591 | 3873 ft | 202 kts | 266° |
| 2026-05-01 15:22 | 51.47806 | -0.18828 | 3474 ft | 204 kts | 266° |
| 2026-05-01 15:22 | 51.47805 | -0.21111 | 3076 ft | 205 kts | 266° |
| 2026-05-01 15:23 | 51.47803 | -0.23425 | 2668 ft | 204 kts | 265° |
| 2026-05-01 15:23 | 51.47802 | -0.25668 | 2285 ft | 197 kts | 265° |
| 2026-05-01 15:23 | 51.47799 | -0.27779 | 1990 ft | 186 kts | 266° |
| 2026-05-01 15:23 | 51.47796 | -0.29827 | 1776 ft | 182 kts | 265° |
| 2026-05-01 15:24 | 51.47793 | -0.31833 | 1526 ft | 178 kts | 265° |
| 2026-05-01 15:24 | 51.47790 | -0.33744 | 1303 ft | 164 kts | 265° |
| 2026-05-01 15:24 | 51.47787 | -0.35523 | 1081 ft | 156 kts | 264° |
| 2026-05-01 15:24 | 51.47783 | -0.37191 | 857 ft | 144 kts | 264° |
| 2026-05-01 15:25 | 51.47778 | -0.38787 | 685 ft | 141 kts | 268° |
| 2026-05-01 15:25 | 51.47772 | -0.40377 | 458 ft | 143 kts | 268° |
| 2026-05-01 15:25 | 51.47785 | -0.41981 | 273 ft | 142 kts | 264° |
| 2026-05-01 15:25 | 51.47776 | -0.43565 | 138 ft | 142 kts | 262° |
| 2026-05-01 15:26 | 51.47767 | -0.45087 | 94 ft | 122 kts | 265° |
| 2026-05-01 15:26 | 51.47755 | -0.46171 | 90 ft | 67 kts | 270° |
| 2026-05-01 15:26 | 51.47729 | -0.46615 | 90 ft | 34 kts | 250° |
| 2026-05-01 15:26 | 51.47644 | -0.46852 | 87 ft | 18 kts | 211° |
| 2026-05-01 15:27 | 51.47584 | -0.46995 | 90 ft | 17 kts | 268° |
| 2026-05-01 15:27 | 51.47583 | -0.47206 | 90 ft | 20 kts | 269° |
| 2026-05-01 15:27 | 51.47581 | -0.47451 | 90 ft | 23 kts | 269° |
| 2026-05-01 15:28 | 51.47580 | -0.48012 | 87 ft | 25 kts | 270° |
| 2026-05-01 15:28 | 51.47578 | -0.48304 | 90 ft | 25 kts | 270° |
| 2026-05-01 15:28 | 51.47537 | -0.48476 | 90 ft | 17 kts | 192° |
| 2026-05-01 15:29 | 51.47414 | -0.48476 | 86 ft | 1 kts | 178° |
| 2026-05-01 15:29 | 51.47405 | -0.48486 | 86 ft | 2 kts | 228° |
| 2026-05-01 15:29 | 51.47400 | -0.48581 | 86 ft | 0 kts | 270° |
| 2026-05-01 15:30 | 51.47399 | -0.48588 | 86 ft | 0 kts | 270° |